Time;durP1;ratioP1;P1;durP2;ratioP2;P2;SDS_P1;SDS_P2;PMS_P1;PMS_P2;Temp;Humidity;BMP_temperature;BMP_pressure;BME280_temperature;BME280_humidity;BME280_pressure;Samples;Min_cycle;Max_cycle;Signal;HPM_P1;HPM_P2
2021/12/17 00:00:25;;;;;;;12.75;6.65;;;4.40;70.50;;;;;;2578468;53;21026;-81
2021/12/17 00:03:15;;;;;;;10.80;5.85;;;4.40;70.60;;;;;;2577640;53;21019;-80
2021/12/17 00:10:06;;;;;;;10.30;4.70;;;4.30;70.60;;;;;;2574086;53;21015;-80
2021/12/17 00:12:43;;;;;;;9.95;5.75;;;4.30;70.50;;;;;;2565933;53;21043;-80
2021/12/17 00:15:22;;;;;;;9.63;5.68;;;4.30;70.60;;;;;;2556392;53;21015;-80
2021/12/17 00:18:03;;;;;;;11.02;5.28;;;4.20;70.50;;;;;;2573104;53;20923;-80
2021/12/17 00:48:46;;;;;;;11.10;5.20;;;3.90;70.00;;;;;;2563423;53;21027;-80
2021/12/17 01:01:16;;;;;;;8.35;4.18;;;3.90;70.00;;;;;;2566063;53;20372;-81
2021/12/17 01:04:06;;;;;;;7.62;4.10;;;3.80;70.40;;;;;;2575251;53;20959;-80
2021/12/17 01:08:11;;;;;;;6.82;3.70;;;3.80;70.50;;;;;;2318904;54;22314;-80
2021/12/17 01:11:27;;;;;;;7.87;4.22;;;3.80;70.70;;;;;;2570415;53;20967;-80
2021/12/17 01:14:30;;;;;;;10.43;5.57;;;3.80;70.70;;;;;;2573430;53;20931;-80
2021/12/17 01:17:03;;;;;;;9.38;4.53;;;3.80;71.00;;;;;;2551491;53;21012;-79
2021/12/17 02:01:08;;;;;;;6.90;3.65;;;3.70;71.10;;;;;;2554521;53;21044;-80
2021/12/17 02:04:02;;;;;;;11.48;4.93;;;3.60;71.10;;;;;;2346146;54;20979;-81
2021/12/17 02:07:18;;;;;;;8.80;4.50;;;3.60;71.30;;;;;;2572408;53;20962;-80
2021/12/17 02:42:29;;;;;;;9.43;4.53;;;3.60;70.70;;;;;;2574903;53;21030;-81
2021/12/17 02:45:54;;;;;;;9.88;4.37;;;3.50;70.40;;;;;;2575779;53;21230;-80
2021/12/17 02:48:48;;;;;;;8.80;4.22;;;3.50;70.60;;;;;;2578138;53;21763;-80
2021/12/17 02:55:23;;;;;;;9.80;4.75;;;3.40;70.60;;;;;;2569886;53;21003;-80
2021/12/17 02:58:03;;;;;;;9.32;4.80;;;3.40;70.80;;;;;;2575733;53;20972;-80
2021/12/17 03:00:43;;;;;;;;;;;3.40;70.80;;;;;;2579526;53;20976;-80
2021/12/17 03:03:51;;;;;;;;;;;;;;;;;;;;;
2021/12/17 03:07:23;;;;;;;9.35;4.65;;;3.40;71.00;;;;;;2572511;53;20944;-81
2021/12/17 03:13:32;;;;;;;7.53;4.10;;;3.30;71.40;;;;;;2573612;53;21027;-81
2021/12/17 03:24:22;;;;;;;10.25;4.75;;;3.50;71.80;;;;;;2575781;53;20948;-81
2021/12/17 03:27:12;;;;;;;8.65;4.28;;;3.50;71.60;;;;;;2563262;53;20947;-80
2021/12/17 03:30:12;;;;;;;8.88;4.10;;;3.50;71.70;;;;;;2559405;53;20942;-80
2021/12/17 03:33:04;;;;;;;8.77;3.92;;;3.50;71.90;;;;;;2527344;53;20960;-80
2021/12/17 03:35:43;;;;;;;10.05;4.82;;;3.60;72.80;;;;;;2538356;53;20953;-80
2021/12/17 03:38:45;;;;;;;13.35;5.82;;;3.60;72.10;;;;;;2545695;54;21011;-81
2021/12/17 03:41:51;;;;;;;10.35;5.15;;;3.60;72.10;;;;;;2543962;53;21574;-80
2021/12/17 03:44:59;;;;;;;10.43;5.12;;;3.60;72.10;;;;;;2530292;54;20922;-80
2021/12/17 03:51:13;;;;;;;10.07;4.82;;;3.70;71.90;;;;;;2538794;53;20984;-81
2021/12/17 03:53:52;;;;;;;9.35;4.53;;;3.70;72.00;;;;;;2574368;53;20982;-80
2021/12/17 03:56:34;;;;;;;9.82;5.00;;;3.70;71.70;;;;;;2543596;53;21124;-80
2021/12/17 03:59:28;;;;;;;10.57;4.40;;;3.70;71.70;;;;;;2571757;53;21081;-79
2021/12/17 04:02:02;;;;;;;9.27;4.62;;;3.70;71.70;;;;;;2570319;53;21413;-80
2021/12/17 04:05:23;;;;;;;10.05;4.93;;;3.70;72.20;;;;;;2325319;54;21048;-81
2021/12/17 04:08:55;;;;;;;12.63;6.05;;;3.70;71.70;;;;;;2564768;53;20940;-81
2021/12/17 04:11:55;;;;;;;10.13;5.62;;;3.70;71.80;;;;;;2566781;53;21219;-80
2021/12/17 04:15:15;;;;;;;12.00;5.70;;;3.70;71.80;;;;;;2574969;53;21433;-80
2021/12/17 04:17:59;;;;;;;12.10;5.68;;;3.70;71.90;;;;;;2572432;53;21086;-80
2021/12/17 04:20:31;;;;;;;8.02;4.07;;;3.80;72.00;;;;;;2527824;53;20967;-80
2021/12/17 04:23:17;;;;;;;10.90;5.10;;;3.80;72.20;;;;;;2579977;53;21069;-83
2021/12/17 04:26:01;;;;;;;9.40;4.68;;;3.80;72.00;;;;;;2555639;53;20927;-80
2021/12/17 04:30:44;;;;;;;8.55;5.30;;;3.80;71.90;;;;;;2576280;53;20948;-82
2021/12/17 04:33:44;;;;;;;;;;;;;;;;;;;;;
2021/12/17 04:36:28;;;;;;;7.82;4.10;;;3.80;71.90;;;;;;2554390;53;20918;-80
2021/12/17 04:39:25;;;;;;;10.48;5.43;;;3.80;72.00;;;;;;2558469;53;20979;-80
2021/12/17 04:42:04;;;;;;;13.60;5.30;;;3.80;72.20;;;;;;2526085;53;20989;-80
2021/12/17 04:44:53;;;;;;;10.38;5.20;;;3.90;72.60;;;;;;2539265;53;21373;-81
2021/12/17 04:59:15;;;;;;;9.98;5.28;;;4.10;73.50;;;;;;2569398;53;20903;-80
2021/12/17 05:01:41;;;;;;;9.52;5.28;;;4.20;73.60;;;;;;2326319;54;21039;-79
2021/12/17 05:04:13;;;;;;;11.47;6.13;;;4.20;73.60;;;;;;2570317;53;20963;-81
2021/12/17 05:06:45;;;;;;;8.88;5.47;;;4.30;73.70;;;;;;2556455;53;20991;-80
2021/12/17 05:09:30;;;;;;;9.50;5.25;;;4.30;73.70;;;;;;2539265;53;20975;-80
2021/12/17 05:20:54;;;;;;;9.18;5.60;;;4.60;73.80;;;;;;2571324;53;21031;-80
2021/12/17 05:23:36;;;;;;;11.12;5.57;;;4.60;73.70;;;;;;2329159;54;20939;-80
2021/12/17 05:26:16;;;;;;;10.50;5.72;;;4.70;73.60;;;;;;2547202;53;21260;-80
2021/12/17 05:28:47;;;;;;;19.90;9.70;;;4.70;73.60;;;;;;2518140;54;20971;-82
2021/12/17 05:31:16;;;;;;;15.38;8.48;;;4.80;73.70;;;;;;2551282;53;20959;-80
2021/12/17 05:33:46;;;;;;;13.93;7.40;;;4.80;73.70;;;;;;2565194;53;20991;-80
2021/12/17 05:36:21;;;;;;;12.25;6.97;;;4.80;73.70;;;;;;2554717;53;21058;-80
2021/12/17 05:38:47;;;;;;;10.90;6.25;;;4.90;73.80;;;;;;2302422;54;21002;-80
2021/12/17 05:41:14;;;;;;;11.60;6.22;;;4.90;73.70;;;;;;2564215;53;21174;-81
2021/12/17 05:43:44;;;;;;;10.63;6.25;;;4.90;73.60;;;;;;2564590;53;21350;-81
2021/12/17 05:46:12;;;;;;;9.50;5.82;;;4.90;74.30;;;;;;2537273;53;20951;-81
2021/12/17 05:48:39;;;;;;;11.60;6.20;;;5.00;73.60;;;;;;2565685;53;21018;-81
2021/12/17 05:51:09;;;;;;;10.98;6.37;;;5.10;73.60;;;;;;2311978;55;21548;-81
2021/12/17 05:53:35;;;;;;;10.68;6.50;;;5.10;73.40;;;;;;2561407;53;21383;-81
2021/12/17 05:56:05;;;;;;;11.43;7.37;;;5.10;73.30;;;;;;2562902;53;20963;-80
2021/12/17 05:58:33;;;;;;;15.02;8.50;;;5.10;73.10;;;;;;2327955;54;21554;-81
2021/12/17 06:01:00;;;;;;;13.25;8.25;;;5.20;73.20;;;;;;2569243;53;20942;-81
2021/12/17 06:03:27;;;;;;;11.20;6.65;;;5.20;73.10;;;;;;2569282;53;21110;-80
2021/12/17 06:05:53;;;;;;;10.70;5.80;;;5.20;72.80;;;;;;2568297;53;21886;-80
2021/12/17 06:08:38;;;;;;;10.88;6.32;;;5.20;72.60;;;;;;2541629;53;21943;-80
2021/12/17 06:11:14;;;;;;;10.52;6.05;;;5.20;72.50;;;;;;2558132;53;21636;-80
2021/12/17 06:13:47;;;;;;;9.70;5.80;;;5.20;72.60;;;;;;2322101;54;20961;-80
2021/12/17 06:16:13;;;;;;;7.97;5.12;;;5.20;72.50;;;;;;2546769;53;21003;-80
2021/12/17 06:18:44;;;;;;;8.27;5.47;;;5.20;72.30;;;;;;2557436;53;21046;-80
2021/12/17 06:21:14;;;;;;;10.45;5.55;;;5.20;72.10;;;;;;2560187;53;20979;-80
2021/12/17 06:23:41;;;;;;;9.63;5.80;;;5.20;71.80;;;;;;2550326;53;20959;-81
2021/12/17 06:26:08;;;;;;;9.30;5.90;;;5.20;71.60;;;;;;2565993;53;20987;-80
2021/12/17 06:28:34;;;;;;;11.00;6.30;;;5.10;71.30;;;;;;2555901;53;21422;-80
2021/12/17 06:31:01;;;;;;;11.18;6.40;;;5.10;71.10;;;;;;2559546;53;20971;-80
2021/12/17 06:33:28;;;;;;;11.40;7.10;;;5.10;70.80;;;;;;2542442;53;21000;-81
2021/12/17 06:35:54;;;;;;;11.63;7.95;;;5.00;70.70;;;;;;2567729;53;21469;-80
2021/12/17 06:38:21;;;;;;;11.98;7.60;;;5.00;70.70;;;;;;2559822;53;21098;-80
2021/12/17 06:40:48;;;;;;;11.70;7.53;;;5.00;70.90;;;;;;2562580;53;21047;-79
2021/12/17 06:43:17;;;;;;;10.35;6.80;;;4.90;70.80;;;;;;2322807;54;20980;-80
2021/12/17 06:45:57;;;;;;;12.02;6.50;;;4.90;70.80;;;;;;2320264;54;20968;-80
2021/12/17 06:48:28;;;;;;;13.00;6.95;;;4.90;70.80;;;;;;2561491;53;20983;-80
2021/12/17 07:06:18;;;;;;;15.60;8.65;;;4.60;70.40;;;;;;2568287;53;21492;-81
2021/12/17 07:17:50;;;;;;;15.10;8.30;;;4.40;70.00;;;;;;2563212;53;21620;-82
2021/12/17 07:34:12;;;;;;;17.08;9.90;;;4.10;70.00;;;;;;2564046;53;21366;-80
2021/12/17 07:42:44;;;;;;;14.00;7.60;;;4.00;70.20;;;;;;2311925;54;21034;-81
2021/12/17 07:45:12;;;;;;;15.68;7.95;;;4.00;70.30;;;;;;2557787;53;20888;-81
2021/12/17 07:47:45;;;;;;;16.87;9.38;;;3.90;70.50;;;;;;2530787;53;20964;-81
2021/12/17 07:50:13;;;;;;;15.07;8.70;;;3.90;71.00;;;;;;2523298;53;20930;-83
2021/12/17 07:52:39;;;;;;;16.70;9.25;;;3.90;71.50;;;;;;2535012;53;20975;-80
2021/12/17 07:55:09;;;;;;;22.15;13.90;;;3.90;71.80;;;;;;2568558;53;22400;-81
2021/12/17 07:57:36;;;;;;;21.52;15.00;;;4.00;72.30;;;;;;2528786;53;21048;-80
2021/12/17 08:00:12;;;;;;;19.77;13.07;;;4.00;72.60;;;;;;2562226;53;20971;-80
2021/12/17 08:02:41;;;;;;;18.30;12.90;;;4.10;73.00;;;;;;2561641;53;21042;-80
2021/12/17 08:05:11;;;;;;;18.48;12.25;;;4.10;73.10;;;;;;2538646;53;20939;-80
2021/12/17 08:07:38;;;;;;;19.08;13.10;;;4.20;73.30;;;;;;2556136;53;21353;-80
2021/12/17 08:10:11;;;;;;;20.12;12.77;;;4.20;73.50;;;;;;2559022;53;21027;-81
2021/12/17 08:12:42;;;;;;;19.00;13.23;;;4.20;73.50;;;;;;2564388;53;21027;-81
2021/12/17 08:15:14;;;;;;;18.62;12.63;;;4.30;73.60;;;;;;2564715;53;20939;-80
2021/12/17 08:18:13;;;;;;;20.00;12.98;;;4.40;73.60;;;;;;2565324;53;20950;-81
2021/12/17 08:32:47;;;;;;;17.42;8.45;;;4.50;73.10;;;;;;2552213;53;21101;-80
2021/12/17 08:35:19;;;;;;;15.65;8.32;;;4.60;72.80;;;;;;2566597;53;20955;-80
2021/12/17 08:37:50;;;;;;;12.13;7.37;;;4.70;73.00;;;;;;2566781;53;21082;-80
2021/12/17 08:40:16;;;;;;;15.20;6.72;;;4.70;73.00;;;;;;2539634;53;21061;-80
2021/12/17 08:42:43;;;;;;;15.40;6.90;;;4.70;73.10;;;;;;2554826;53;21055;-80
2021/12/17 08:45:10;;;;;;;11.18;6.97;;;4.70;73.30;;;;;;2559250;53;21339;-81
2021/12/17 08:47:44;;;;;;;15.88;7.90;;;4.90;73.70;;;;;;2550827;53;21034;-80
2021/12/17 08:50:12;;;;;;;20.10;7.65;;;4.80;73.90;;;;;;2565108;53;21149;-81
2021/12/17 08:52:42;;;;;;;13.40;7.68;;;4.90;74.10;;;;;;2559530;53;20932;-80
2021/12/17 08:55:10;;;;;;;13.82;7.45;;;4.90;74.20;;;;;;2557309;53;20943;-80
2021/12/17 08:57:48;;;;;;;12.32;6.93;;;5.00;74.40;;;;;;2560042;53;20976;-80
2021/12/17 09:00:22;;;;;;;15.25;8.00;;;5.10;74.50;;;;;;2322375;54;21158;-80
2021/12/17 09:02:50;;;;;;;13.85;7.53;;;5.10;74.50;;;;;;2565774;53;22374;-80
2021/12/17 09:05:26;;;;;;;11.12;6.65;;;5.20;75.20;;;;;;2568881;53;20975;-80
2021/12/17 09:08:05;;;;;;;11.60;6.87;;;5.20;74.30;;;;;;2551835;53;21966;-81
2021/12/17 09:10:34;;;;;;;12.57;7.15;;;5.30;74.50;;;;;;2335001;54;20948;-81
2021/12/17 09:13:00;;;;;;;11.52;6.10;;;5.30;74.40;;;;;;2551640;53;20943;-80
2021/12/17 09:15:27;;;;;;;14.63;6.65;;;5.40;74.60;;;;;;2519144;54;20955;-81
2021/12/17 09:17:54;;;;;;;13.07;7.57;;;5.40;74.60;;;;;;2550845;53;21067;-80
2021/12/17 09:20:21;;;;;;;13.23;8.43;;;5.50;74.70;;;;;;2328339;54;21019;-80
2021/12/17 09:22:47;;;;;;;12.20;7.15;;;5.50;74.70;;;;;;2323344;54;20955;-80
2021/12/17 09:25:14;;;;;;;13.02;6.90;;;5.60;74.80;;;;;;2556066;53;20990;-81
2021/12/17 09:27:41;;;;;;;13.00;7.43;;;5.70;74.90;;;;;;2550070;53;20970;-81
2021/12/17 09:30:09;;;;;;;12.50;8.40;;;5.70;75.00;;;;;;2563738;53;20954;-79
2021/12/17 09:32:39;;;;;;;15.40;8.47;;;5.80;75.00;;;;;;2567985;53;21034;-80
2021/12/17 09:35:07;;;;;;;12.15;7.55;;;5.80;75.00;;;;;;2560392;53;20919;-80
2021/12/17 09:37:35;;;;;;;11.38;7.43;;;5.90;75.10;;;;;;2557329;53;21007;-81
2021/12/17 09:40:06;;;;;;;10.18;6.35;;;6.00;75.20;;;;;;2550040;53;21055;-80
2021/12/17 09:43:30;;;;;;;10.07;6.03;;;6.00;75.30;;;;;;2559250;53;20967;-80
2021/12/17 09:46:01;;;;;;;9.45;5.45;;;6.00;75.20;;;;;;2518557;54;20924;-80
2021/12/17 09:48:28;;;;;;;11.55;6.85;;;6.20;75.40;;;;;;2557109;53;20892;-82
2021/12/17 09:50:56;;;;;;;11.73;7.12;;;6.30;75.60;;;;;;2556969;53;20935;-80
2021/12/17 09:53:23;;;;;;;8.98;5.87;;;6.30;75.60;;;;;;2549294;53;20984;-80
2021/12/17 09:55:50;;;;;;;8.95;5.70;;;6.40;75.70;;;;;;2549865;53;22089;-81
2021/12/17 09:58:17;;;;;;;9.30;5.82;;;6.50;75.90;;;;;;2549887;53;21007;-80
2021/12/17 10:00:46;;;;;;;11.25;6.35;;;6.50;76.00;;;;;;2561904;53;20935;-80
2021/12/17 10:03:13;;;;;;;9.90;6.37;;;6.60;76.10;;;;;;2552311;53;21015;-80
2021/12/17 10:05:40;;;;;;;9.40;5.75;;;6.70;76.30;;;;;;2549835;53;20937;-81
2021/12/17 10:08:10;;;;;;;8.40;5.57;;;6.80;76.50;;;;;;2549733;53;20942;-80
2021/12/17 10:10:42;;;;;;;8.70;5.55;;;6.90;76.60;;;;;;2568028;53;20967;-81
2021/12/17 10:13:24;;;;;;;9.82;5.90;;;7.00;76.80;;;;;;2307186;54;20959;-80
2021/12/17 10:15:56;;;;;;;13.55;6.60;;;7.10;76.90;;;;;;2310812;54;20963;-80
2021/12/17 10:18:42;;;;;;;10.40;6.37;;;7.20;77.00;;;;;;2550117;53;20963;-79
2021/12/17 10:21:11;;;;;;;10.55;6.25;;;7.30;77.10;;;;;;2562285;53;21363;-80
2021/12/17 10:23:41;;;;;;;11.50;7.25;;;7.40;77.20;;;;;;2548063;53;20963;-80
2021/12/17 10:26:12;;;;;;;12.00;7.40;;;7.50;77.40;;;;;;2324482;54;21019;-81
2021/12/17 10:28:50;;;;;;;12.45;7.32;;;7.60;77.50;;;;;;2552516;53;20943;-80
2021/12/17 10:31:17;;;;;;;11.48;7.80;;;7.70;77.60;;;;;;2547916;53;20987;-80
2021/12/17 10:33:52;;;;;;;10.20;6.12;;;7.80;77.70;;;;;;2548950;53;20944;-80
2021/12/17 10:36:18;;;;;;;10.73;6.30;;;7.90;77.70;;;;;;2564108;53;20940;-80
2021/12/17 10:38:57;;;;;;;13.13;5.68;;;8.00;77.80;;;;;;2562278;53;20924;-79
2021/12/17 10:41:27;;;;;;;9.55;6.55;;;8.10;77.90;;;;;;2565702;53;21007;-79
2021/12/17 10:43:59;;;;;;;13.00;8.63;;;8.20;78.00;;;;;;2553539;53;21011;-80
2021/12/17 10:46:28;;;;;;;11.95;8.48;;;8.30;79.40;;;;;;2565025;53;21055;-79
2021/12/17 10:49:01;;;;;;;15.68;9.73;;;8.60;81.80;;;;;;2558866;53;20991;-80
2021/12/17 10:52:07;;;;;;;15.95;10.68;;;8.90;84.10;;;;;;2326724;54;20907;-80
2021/12/17 10:54:34;;;;;;;16.12;10.13;;;9.40;85.90;;;;;;2549373;53;21885;-81
2021/12/17 10:57:00;;;;;;;15.60;10.15;;;10.10;85.80;;;;;;2548410;53;20975;-80
2021/12/17 10:59:30;;;;;;;14.07;9.15;;;10.60;86.50;;;;;;2548915;53;21059;-80
2021/12/17 11:02:05;;;;;;;14.43;9.40;;;11.10;86.60;;;;;;2329438;54;20991;-80
2021/12/17 11:04:36;;;;;;;13.73;9.43;;;11.50;86.10;;;;;;2548916;53;22056;-81
2021/12/17 11:07:14;;;;;;;12.23;8.50;;;12.00;85.40;;;;;;2330910;54;24966;-80
2021/12/17 11:09:45;;;;;;;13.85;10.02;;;12.30;83.50;;;;;;2545060;53;20987;-80
2021/12/17 11:12:45;;;;;;;13.35;8.98;;;12.60;82.20;;;;;;2325513;54;21466;-80
2021/12/17 11:15:25;;;;;;;14.50;9.75;;;12.90;79.40;;;;;;2312505;55;22132;-80
2021/12/17 11:18:00;;;;;;;12.60;8.63;;;13.00;77.80;;;;;;2548828;53;20971;-80
2021/12/17 11:20:34;;;;;;;11.18;8.38;;;13.10;76.90;;;;;;2546633;53;20994;-80
2021/12/17 11:23:05;;;;;;;11.98;8.38;;;13.10;75.60;;;;;;2330256;54;20924;-79
2021/12/17 11:25:32;;;;;;;11.65;7.82;;;13.20;75.70;;;;;;2306566;54;20908;-80
2021/12/17 11:27:58;;;;;;;12.70;8.07;;;13.20;75.20;;;;;;2310524;54;21059;-80
2021/12/17 11:30:27;;;;;;;12.18;8.25;;;13.20;74.20;;;;;;2556469;53;21040;-80
2021/12/17 11:32:54;;;;;;;10.75;7.75;;;13.20;73.10;;;;;;2558605;53;20939;-80
2021/12/17 11:35:23;;;;;;;10.85;7.43;;;13.10;72.10;;;;;;2555118;53;22126;-80
2021/12/17 11:37:50;;;;;;;10.45;7.32;;;13.00;71.00;;;;;;2321314;54;20939;-80
2021/12/17 11:40:29;;;;;;;12.20;7.93;;;12.90;70.80;;;;;;2550874;53;20983;-80
2021/12/17 11:50:02;;;;;;;11.63;7.87;;;12.90;70.70;;;;;;2330417;54;20955;-80
2021/12/17 11:52:45;;;;;;;18.90;14.55;;;12.70;69.30;;;;;;2270408;54;1433954;-80
2021/12/17 11:58:50;;;;;;;15.98;11.25;;;12.30;69.40;;;;;;2319554;54;20935;-80
2021/12/17 12:01:57;;;;;;;12.63;7.70;;;12.10;68.90;;;;;;2547701;53;21015;-81
2021/12/17 12:05:08;;;;;;;11.85;7.97;;;12.00;69.60;;;;;;2309826;54;20943;-81
2021/12/17 12:07:36;;;;;;;11.43;7.53;;;11.90;69.80;;;;;;2548874;53;20935;-80
2021/12/17 12:10:21;;;;;;;14.65;8.43;;;11.80;71.10;;;;;;2549253;53;20955;-81
2021/12/17 12:12:57;;;;;;;12.68;7.72;;;11.80;70.80;;;;;;2287250;54;20965;-81
2021/12/17 12:15:28;;;;;;;11.57;7.78;;;11.80;72.10;;;;;;2549535;53;21554;-81
2021/12/17 12:18:06;;;;;;;12.00;8.18;;;11.90;73.10;;;;;;2547278;53;20959;-81
2021/12/17 12:21:33;;;;;;;11.45;7.55;;;11.90;73.50;;;;;;2327415;54;21816;-81
2021/12/17 12:24:17;;;;;;;9.30;5.95;;;12.10;72.70;;;;;;2325802;54;20935;-80
2021/12/17 12:26:45;;;;;;;10.88;6.95;;;12.20;73.30;;;;;;2547969;53;21007;-80
2021/12/17 12:29:23;;;;;;;12.65;8.05;;;12.30;74.40;;;;;;2547293;53;21424;-81
2021/12/17 12:31:51;;;;;;;13.32;8.27;;;12.40;74.30;;;;;;2308655;54;20935;-81
2021/12/17 12:34:31;;;;;;;14.43;8.77;;;12.50;73.90;;;;;;2326431;54;20935;-81
2021/12/17 12:37:35;;;;;;;10.43;7.37;;;12.60;73.40;;;;;;2550980;53;21978;-81
2021/12/17 12:40:15;;;;;;;11.70;7.57;;;12.70;71.80;;;;;;2320142;54;22061;-80
2021/12/17 12:42:47;;;;;;;11.68;8.20;;;12.80;72.60;;;;;;2309601;54;21009;-81
2021/12/17 12:45:16;;;;;;;12.63;7.95;;;12.80;72.40;;;;;;2563871;53;20965;-81
2021/12/17 12:47:54;;;;;;;10.63;7.57;;;12.90;72.40;;;;;;2549551;53;21007;-80
2021/12/17 12:50:24;;;;;;;11.82;7.97;;;12.90;71.40;;;;;;2517222;54;21050;-81
2021/12/17 12:52:55;;;;;;;10.65;7.18;;;12.90;71.40;;;;;;2547891;53;20944;-80
2021/12/17 12:55:39;;;;;;;11.05;7.40;;;12.90;71.30;;;;;;2532568;53;22083;-80
2021/12/17 12:58:14;;;;;;;11.02;6.97;;;13.00;70.80;;;;;;2314038;54;21006;-81
2021/12/17 13:00:48;;;;;;;10.75;7.15;;;13.00;71.20;;;;;;2322892;54;21090;-82
2021/12/17 13:03:17;;;;;;;9.85;6.72;;;13.00;71.30;;;;;;2550057;53;20995;-81
2021/12/17 13:05:45;;;;;;;10.00;6.68;;;13.10;71.40;;;;;;2563842;53;21911;-80
2021/12/17 13:08:14;;;;;;;11.15;6.70;;;13.10;71.20;;;;;;2331225;54;20955;-81
2021/12/17 13:10:45;;;;;;;9.38;6.00;;;13.10;71.30;;;;;;2319306;54;20963;-81
2021/12/17 13:22:03;;;;;;;8.35;5.20;;;13.40;71.30;;;;;;2547772;53;21018;-81
2021/12/17 13:24:31;;;;;;;8.05;5.12;;;13.50;71.30;;;;;;2325942;54;20916;-81
2021/12/17 13:27:01;;;;;;;8.57;5.18;;;13.50;70.90;;;;;;2313809;54;20979;-81
2021/12/17 13:29:33;;;;;;;6.30;4.07;;;13.60;70.50;;;;;;2537900;53;21047;-80
2021/12/17 13:32:10;;;;;;;7.68;4.95;;;13.60;70.10;;;;;;2547253;53;20951;-81
2021/12/17 13:34:38;;;;;;;7.07;4.87;;;13.60;69.40;;;;;;2322003;54;21022;-81
2021/12/17 13:37:26;;;;;;;7.65;5.30;;;13.70;70.20;;;;;;2561535;53;20972;-81
2021/12/17 13:39:57;;;;;;;7.60;5.25;;;13.70;69.40;;;;;;2327185;54;20935;-80
2021/12/17 13:42:28;;;;;;;7.28;4.70;;;13.80;71.00;;;;;;2564989;53;20896;-83
2021/12/17 13:45:02;;;;;;;7.05;4.72;;;13.80;71.30;;;;;;2550466;53;21865;-82
2021/12/17 13:47:36;;;;;;;7.18;4.50;;;13.90;71.00;;;;;;2287458;54;21015;-80
2021/12/17 13:50:18;;;;;;;8.35;4.90;;;13.90;70.80;;;;;;2532625;53;21998;-81
2021/12/17 13:52:47;;;;;;;6.65;4.53;;;14.00;71.10;;;;;;2312050;54;21039;-82
2021/12/17 13:55:15;;;;;;;8.30;4.32;;;14.00;71.00;;;;;;2546924;53;20944;-81
2021/12/17 13:57:41;;;;;;;6.53;3.97;;;14.00;70.90;;;;;;2548014;53;20943;-82
2021/12/17 14:00:14;;;;;;;6.60;4.00;;;13.90;70.60;;;;;;2309167;54;21432;-82
2021/12/17 14:02:42;;;;;;;5.75;3.70;;;13.90;70.40;;;;;;2548462;53;20903;-81
2021/12/17 14:05:15;;;;;;;7.55;4.28;;;13.90;70.30;;;;;;2547305;53;20935;-81
2021/12/17 14:07:48;;;;;;;5.65;3.55;;;13.80;69.90;;;;;;2547193;53;20949;-81
2021/12/17 14:10:15;;;;;;;5.45;3.42;;;13.70;70.00;;;;;;2548266;53;21006;-82
2021/12/17 14:12:42;;;;;;;6.10;3.83;;;13.70;70.30;;;;;;2548137;53;20928;-82
2021/12/17 14:15:40;;;;;;;5.22;3.28;;;13.60;70.30;;;;;;2548498;53;20923;-81
2021/12/17 14:18:07;;;;;;;6.85;3.60;;;13.50;70.30;;;;;;2309682;54;20955;-81
2021/12/17 14:20:50;;;;;;;4.97;3.15;;;13.50;70.30;;;;;;2547854;53;21023;-83
2021/12/17 14:23:18;;;;;;;4.72;2.87;;;13.40;69.50;;;;;;2547732;53;21974;-82
2021/12/17 14:25:54;;;;;;;6.70;3.30;;;13.30;70.40;;;;;;2548633;53;20943;-81
2021/12/17 14:28:30;;;;;;;5.30;2.90;;;13.20;70.40;;;;;;2563058;53;21958;-82
2021/12/17 14:31:04;;;;;;;5.30;3.20;;;13.20;70.30;;;;;;2325286;54;21335;-81
2021/12/17 14:33:35;;;;;;;5.78;2.97;;;13.10;70.50;;;;;;2311884;54;20943;-81
2021/12/17 14:36:03;;;;;;;4.93;3.17;;;13.10;70.70;;;;;;2556603;53;21829;-82
2021/12/17 14:38:49;;;;;;;4.60;2.85;;;13.00;70.50;;;;;;2335840;54;21561;-81
2021/12/17 14:41:27;;;;;;;5.43;3.08;;;12.90;69.80;;;;;;2329688;54;20936;-81
2021/12/17 14:44:02;;;;;;;5.62;3.20;;;12.80;70.00;;;;;;2562555;53;21615;-81
2021/12/17 14:46:47;;;;;;;5.40;3.00;;;12.70;70.00;;;;;;2573195;53;21398;-81
2021/12/17 15:01:12;;;;;;;4.65;2.60;;;12.20;69.30;;;;;;2556939;53;21000;-80
2021/12/17 15:03:41;;;;;;;4.78;2.47;;;12.10;69.20;;;;;;2525535;54;20995;-81
2021/12/17 15:06:12;;;;;;;5.47;3.33;;;12.00;69.10;;;;;;2541230;53;20920;-81
2021/12/17 15:08:39;;;;;;;5.20;3.00;;;11.80;68.70;;;;;;2298993;54;20932;-81
2021/12/17 15:11:11;;;;;;;4.72;2.95;;;11.80;68.80;;;;;;2317561;55;20954;-82
2021/12/17 15:13:37;;;;;;;5.25;3.10;;;11.60;68.50;;;;;;2557059;53;20988;-82
2021/12/17 15:16:03;;;;;;;4.72;2.95;;;11.50;68.40;;;;;;2564188;53;20964;-81
2021/12/17 15:18:30;;;;;;;7.60;4.97;;;11.40;68.40;;;;;;2565818;53;21065;-82
2021/12/17 15:20:56;;;;;;;6.62;4.60;;;11.30;68.30;;;;;;2562016;53;20955;-81
2021/12/17 15:23:23;;;;;;;8.68;5.12;;;11.20;68.20;;;;;;2564623;53;20936;-80
2021/12/17 15:25:51;;;;;;;6.50;4.28;;;11.10;68.20;;;;;;2315134;54;20923;-81
2021/12/17 15:28:23;;;;;;;5.85;3.75;;;11.00;68.10;;;;;;2557197;53;20991;-81
2021/12/17 15:30:51;;;;;;;6.97;3.65;;;10.80;67.60;;;;;;2557514;53;20958;-82
2021/12/17 15:33:18;;;;;;;5.97;3.33;;;10.80;67.70;;;;;;2567330;53;20912;-81
2021/12/17 15:35:46;;;;;;;4.90;3.30;;;10.60;67.40;;;;;;2563018;53;20994;-81
2021/12/17 15:38:12;;;;;;;6.32;3.15;;;10.50;67.30;;;;;;2565036;53;20944;-81
2021/12/17 15:40:40;;;;;;;4.72;3.00;;;10.40;67.20;;;;;;2556344;53;20963;-81
2021/12/17 15:43:07;;;;;;;4.68;2.75;;;10.30;67.10;;;;;;2313241;54;20991;-81
2021/12/17 15:45:34;;;;;;;4.55;2.70;;;10.10;67.00;;;;;;2557092;53;21552;-81
2021/12/17 15:48:01;;;;;;;4.45;2.47;;;10.00;67.00;;;;;;2332807;54;20939;-80
2021/12/17 15:50:32;;;;;;;5.78;3.00;;;9.90;68.10;;;;;;2317438;54;20994;-81
2021/12/17 15:52:58;;;;;;;5.87;3.67;;;9.70;68.00;;;;;;2309363;54;21003;-81
2021/12/17 15:55:26;;;;;;;5.82;3.55;;;9.70;67.90;;;;;;2317431;55;20939;-81
2021/12/17 15:57:57;;;;;;;7.03;3.53;;;9.50;67.70;;;;;;2335025;54;20970;-81
2021/12/17 16:00:27;;;;;;;5.85;3.33;;;9.40;67.60;;;;;;2557098;53;22124;-81
2021/12/17 16:02:54;;;;;;;6.68;4.20;;;9.30;67.70;;;;;;2575236;53;20911;-82
2021/12/17 16:05:23;;;;;;;6.43;3.95;;;9.20;67.90;;;;;;2317438;55;20962;-81
2021/12/17 16:07:52;;;;;;;8.50;4.45;;;9.00;67.90;;;;;;2574059;53;20970;-81
2021/12/17 16:18:56;;;;;;;7.37;4.57;;;8.60;68.20;;;;;;2569203;53;20943;-80
2021/12/17 16:21:23;;;;;;;7.68;4.53;;;8.50;68.20;;;;;;2320763;55;20967;-81
2021/12/17 16:23:51;;;;;;;7.97;4.87;;;8.40;68.30;;;;;;2557250;53;20943;-81
2021/12/17 16:26:21;;;;;;;8.98;5.18;;;8.30;68.30;;;;;;2575363;53;21059;-81
2021/12/17 16:28:48;;;;;;;8.30;4.62;;;8.20;68.30;;;;;;2574907;53;20987;-81
2021/12/17 16:31:35;;;;;;;9.18;5.00;;;8.10;68.40;;;;;;2557565;53;21034;-80
2021/12/17 16:34:03;;;;;;;7.97;4.43;;;8.00;68.00;;;;;;2566599;53;20959;-81
2021/12/17 16:36:31;;;;;;;7.07;4.18;;;7.90;68.30;;;;;;2570760;53;21039;-81
2021/12/17 16:38:57;;;;;;;9.48;4.78;;;7.80;68.50;;;;;;2571089;53;20940;-81
2021/12/17 16:41:25;;;;;;;8.95;4.93;;;7.80;68.70;;;;;;2557758;53;21378;-80
2021/12/17 16:43:59;;;;;;;7.97;5.20;;;7.70;68.60;;;;;;2557196;53;21329;-81
2021/12/17 16:50:43;;;;;;;7.50;4.07;;;7.50;68.60;;;;;;2577149;53;21466;-83
2021/12/17 16:53:09;;;;;;;8.27;4.78;;;7.40;68.70;;;;;;2548850;53;20952;-81
2021/12/17 16:55:37;;;;;;;8.32;4.87;;;7.30;68.70;;;;;;2573058;53;21517;-80
2021/12/17 16:58:04;;;;;;;8.90;5.37;;;7.20;68.80;;;;;;2571955;53;20924;-81
2021/12/17 17:00:30;;;;;;;11.52;6.30;;;7.20;68.90;;;;;;2324774;54;21063;-81
2021/12/17 17:02:58;;;;;;;11.25;5.97;;;7.10;68.80;;;;;;2558414;53;20947;-81
2021/12/17 17:05:25;;;;;;;15.93;6.05;;;7.00;68.80;;;;;;2557502;53;21048;-81
2021/12/17 17:07:51;;;;;;;11.65;5.97;;;7.00;68.90;;;;;;2553707;53;20970;-80
2021/12/17 17:10:19;;;;;;;10.25;6.00;;;6.90;68.90;;;;;;2307898;55;20959;-81
2021/12/17 17:12:49;;;;;;;9.95;5.25;;;6.80;69.10;;;;;;2309661;54;20951;-81
2021/12/17 17:15:16;;;;;;;10.23;5.75;;;6.80;69.30;;;;;;2543087;53;20944;-81
2021/12/17 17:17:42;;;;;;;9.23;5.43;;;6.70;69.20;;;;;;2554204;53;20986;-82
2021/12/17 17:20:10;;;;;;;10.23;5.75;;;6.70;69.20;;;;;;2556014;53;21265;-81
2021/12/17 17:22:36;;;;;;;9.60;5.68;;;6.60;69.30;;;;;;2557095;53;21018;-81
2021/12/17 17:25:03;;;;;;;10.30;5.50;;;6.40;69.70;;;;;;2335667;54;21059;-81
2021/12/17 17:27:29;;;;;;;8.05;4.50;;;6.60;70.60;;;;;;2558656;53;20943;-82
2021/12/17 17:29:55;;;;;;;9.57;4.87;;;6.50;70.90;;;;;;2576321;53;20987;-81
2021/12/17 17:32:22;;;;;;;7.97;5.03;;;6.50;70.70;;;;;;2557923;53;21066;-81
2021/12/17 17:34:48;;;;;;;10.20;5.12;;;6.50;70.60;;;;;;2574119;53;20983;-81
2021/12/17 17:37:17;;;;;;;7.47;4.82;;;6.50;70.60;;;;;;2567728;53;20991;-82
2021/12/17 17:39:47;;;;;;;7.80;4.25;;;6.40;70.20;;;;;;2564208;53;20975;-82
2021/12/17 17:42:16;;;;;;;6.22;3.75;;;6.40;70.10;;;;;;2558338;53;20990;-81
2021/12/17 17:44:43;;;;;;;8.15;5.22;;;6.30;70.10;;;;;;2574705;53;21019;-80
2021/12/17 17:47:11;;;;;;;7.72;4.12;;;6.30;70.10;;;;;;2573409;53;20978;-81
2021/12/17 17:49:37;;;;;;;7.87;4.32;;;6.20;70.00;;;;;;2574319;53;20964;-81